sensor_id;sensor_type;location;lat;lon;timestamp;P1;durP1;ratioP1;P2;durP2;ratioP2
52964;SDS011;42923;53.220;6.528;2023-07-13T00:02:16;10.60;;;3.20;;
52964;SDS011;42923;53.220;6.528;2023-07-13T00:04:42;12.07;;;3.58;;
52964;SDS011;42923;53.220;6.528;2023-07-13T00:07:08;7.78;;;3.42;;
52964;SDS011;42923;53.220;6.528;2023-07-13T00:09:34;8.00;;;2.90;;
52964;SDS011;42923;53.220;6.528;2023-07-13T00:12:00;15.43;;;3.92;;
52964;SDS011;42923;53.220;6.528;2023-07-13T00:14:27;10.15;;;3.60;;
52964;SDS011;42923;53.220;6.528;2023-07-13T00:16:54;13.43;;;4.45;;
52964;SDS011;42923;53.220;6.528;2023-07-13T00:19:20;9.35;;;3.65;;
52964;SDS011;42923;53.220;6.528;2023-07-13T00:21:46;12.77;;;3.70;;
52964;SDS011;42923;53.220;6.528;2023-07-13T00:24:14;12.00;;;4.00;;
52964;SDS011;42923;53.220;6.528;2023-07-13T00:26:43;12.05;;;3.78;;
52964;SDS011;42923;53.220;6.528;2023-07-13T00:29:12;14.70;;;3.50;;
52964;SDS011;42923;53.220;6.528;2023-07-13T00:31:38;12.75;;;3.63;;
52964;SDS011;42923;53.220;6.528;2023-07-13T00:34:05;12.38;;;3.70;;
52964;SDS011;42923;53.220;6.528;2023-07-13T00:36:31;16.38;;;4.00;;
52964;SDS011;42923;53.220;6.528;2023-07-13T00:38:57;11.48;;;3.75;;
52964;SDS011;42923;53.220;6.528;2023-07-13T00:41:23;10.50;;;2.83;;
52964;SDS011;42923;53.220;6.528;2023-07-13T00:43:49;11.25;;;3.63;;
52964;SDS011;42923;53.220;6.528;2023-07-13T00:46:20;17.55;;;3.80;;
52964;SDS011;42923;53.220;6.528;2023-07-13T00:48:46;15.07;;;3.88;;
52964;SDS011;42923;53.220;6.528;2023-07-13T00:51:15;16.20;;;4.25;;
52964;SDS011;42923;53.220;6.528;2023-07-13T00:53:43;15.18;;;4.10;;
52964;SDS011;42923;53.220;6.528;2023-07-13T00:56:10;12.50;;;3.30;;
52964;SDS011;42923;53.220;6.528;2023-07-13T00:58:36;10.32;;;3.65;;
52964;SDS011;42923;53.220;6.528;2023-07-13T01:01:03;14.98;;;4.00;;
52964;SDS011;42923;53.220;6.528;2023-07-13T01:03:28;16.20;;;4.00;;
52964;SDS011;42923;53.220;6.528;2023-07-13T01:05:54;16.92;;;4.20;;
52964;SDS011;42923;53.220;6.528;2023-07-13T01:08:21;16.00;;;4.45;;
52964;SDS011;42923;53.220;6.528;2023-07-13T01:10:51;15.15;;;4.03;;
52964;SDS011;42923;53.220;6.528;2023-07-13T01:13:18;12.50;;;4.30;;
52964;SDS011;42923;53.220;6.528;2023-07-13T01:15:45;13.90;;;3.75;;
52964;SDS011;42923;53.220;6.528;2023-07-13T01:18:17;10.10;;;3.90;;
52964;SDS011;42923;53.220;6.528;2023-07-13T01:20:53;20.15;;;5.70;;
52964;SDS011;42923;53.220;6.528;2023-07-13T01:23:19;15.98;;;5.03;;
52964;SDS011;42923;53.220;6.528;2023-07-13T01:25:47;7.72;;;3.22;;
52964;SDS011;42923;53.220;6.528;2023-07-13T01:28:13;14.25;;;4.97;;
52964;SDS011;42923;53.220;6.528;2023-07-13T01:30:42;12.75;;;3.55;;
52964;SDS011;42923;53.220;6.528;2023-07-13T01:33:11;17.65;;;4.10;;
52964;SDS011;42923;53.220;6.528;2023-07-13T01:35:42;23.70;;;6.30;;
52964;SDS011;42923;53.220;6.528;2023-07-13T01:38:09;17.50;;;4.53;;
52964;SDS011;42923;53.220;6.528;2023-07-13T01:40:36;14.60;;;4.82;;
52964;SDS011;42923;53.220;6.528;2023-07-13T01:43:03;14.73;;;4.13;;
52964;SDS011;42923;53.220;6.528;2023-07-13T01:45:29;9.68;;;3.83;;
52964;SDS011;42923;53.220;6.528;2023-07-13T01:47:55;11.40;;;4.07;;
52964;SDS011;42923;53.220;6.528;2023-07-13T01:50:21;10.23;;;3.78;;
52964;SDS011;42923;53.220;6.528;2023-07-13T01:52:46;8.82;;;3.63;;
52964;SDS011;42923;53.220;6.528;2023-07-13T01:55:13;15.15;;;3.65;;
52964;SDS011;42923;53.220;6.528;2023-07-13T01:57:40;5.95;;;3.10;;
52964;SDS011;42923;53.220;6.528;2023-07-13T02:00:06;7.45;;;3.35;;
52964;SDS011;42923;53.220;6.528;2023-07-13T02:02:46;9.98;;;2.80;;
52964;SDS011;42923;53.220;6.528;2023-07-13T02:05:12;12.05;;;3.58;;
52964;SDS011;42923;53.220;6.528;2023-07-13T02:07:40;8.65;;;2.83;;
52964;SDS011;42923;53.220;6.528;2023-07-13T02:10:06;10.07;;;3.60;;
52964;SDS011;42923;53.220;6.528;2023-07-13T02:12:34;10.07;;;3.28;;
52964;SDS011;42923;53.220;6.528;2023-07-13T02:15:00;13.00;;;3.95;;
52964;SDS011;42923;53.220;6.528;2023-07-13T02:17:27;9.95;;;3.33;;
52964;SDS011;42923;53.220;6.528;2023-07-13T02:19:53;6.53;;;3.13;;
52964;SDS011;42923;53.220;6.528;2023-07-13T02:22:19;8.57;;;4.05;;
52964;SDS011;42923;53.220;6.528;2023-07-13T02:24:45;14.98;;;3.28;;
52964;SDS011;42923;53.220;6.528;2023-07-13T02:27:11;11.13;;;4.03;;
52964;SDS011;42923;53.220;6.528;2023-07-13T02:29:37;7.60;;;2.55;;
52964;SDS011;42923;53.220;6.528;2023-07-13T02:32:02;7.07;;;3.17;;
52964;SDS011;42923;53.220;6.528;2023-07-13T02:34:28;6.80;;;2.85;;
52964;SDS011;42923;53.220;6.528;2023-07-13T02:36:55;9.00;;;3.15;;
52964;SDS011;42923;53.220;6.528;2023-07-13T02:39:21;4.72;;;2.28;;
52964;SDS011;42923;53.220;6.528;2023-07-13T02:41:47;7.15;;;2.65;;
52964;SDS011;42923;53.220;6.528;2023-07-13T02:44:13;7.20;;;2.72;;
52964;SDS011;42923;53.220;6.528;2023-07-13T02:46:39;8.27;;;3.08;;
52964;SDS011;42923;53.220;6.528;2023-07-13T02:49:05;9.68;;;2.90;;
52964;SDS011;42923;53.220;6.528;2023-07-13T02:51:31;9.55;;;3.17;;
52964;SDS011;42923;53.220;6.528;2023-07-13T02:54:03;12.57;;;3.90;;
52964;SDS011;42923;53.220;6.528;2023-07-13T02:56:30;7.75;;;3.60;;
52964;SDS011;42923;53.220;6.528;2023-07-13T02:58:57;11.77;;;4.03;;
52964;SDS011;42923;53.220;6.528;2023-07-13T03:01:23;16.02;;;4.63;;
52964;SDS011;42923;53.220;6.528;2023-07-13T03:03:50;13.65;;;3.90;;
52964;SDS011;42923;53.220;6.528;2023-07-13T03:06:17;13.60;;;4.35;;
52964;SDS011;42923;53.220;6.528;2023-07-13T03:08:48;18.92;;;4.97;;
52964;SDS011;42923;53.220;6.528;2023-07-13T03:11:15;15.70;;;4.32;;
52964;SDS011;42923;53.220;6.528;2023-07-13T03:13:45;14.50;;;5.30;;
52964;SDS011;42923;53.220;6.528;2023-07-13T03:16:12;15.32;;;5.40;;
52964;SDS011;42923;53.220;6.528;2023-07-13T03:18:42;16.48;;;6.05;;
52964;SDS011;42923;53.220;6.528;2023-07-13T03:21:10;17.48;;;6.20;;
52964;SDS011;42923;53.220;6.528;2023-07-13T03:23:38;19.42;;;6.05;;
52964;SDS011;42923;53.220;6.528;2023-07-13T03:26:05;23.33;;;6.80;;
52964;SDS011;42923;53.220;6.528;2023-07-13T03:28:34;18.50;;;6.28;;
52964;SDS011;42923;53.220;6.528;2023-07-13T03:31:09;17.15;;;5.97;;
52964;SDS011;42923;53.220;6.528;2023-07-13T03:33:37;15.85;;;6.32;;
52964;SDS011;42923;53.220;6.528;2023-07-13T03:36:04;15.05;;;5.35;;
52964;SDS011;42923;53.220;6.528;2023-07-13T03:38:31;20.13;;;5.93;;
52964;SDS011;42923;53.220;6.528;2023-07-13T03:40:58;18.73;;;6.40;;
52964;SDS011;42923;53.220;6.528;2023-07-13T03:43:25;14.07;;;5.38;;
52964;SDS011;42923;53.220;6.528;2023-07-13T03:45:52;16.75;;;5.88;;
52964;SDS011;42923;53.220;6.528;2023-07-13T03:48:18;17.38;;;5.20;;
52964;SDS011;42923;53.220;6.528;2023-07-13T03:50:44;26.52;;;5.82;;
52964;SDS011;42923;53.220;6.528;2023-07-13T03:53:10;17.58;;;5.63;;
52964;SDS011;42923;53.220;6.528;2023-07-13T03:55:36;20.05;;;4.55;;
52964;SDS011;42923;53.220;6.528;2023-07-13T04:00:56;20.90;;;5.38;;
52964;SDS011;42923;53.220;6.528;2023-07-13T04:03:22;22.88;;;5.20;;
52964;SDS011;42923;53.220;6.528;2023-07-13T04:05:48;14.45;;;5.70;;
52964;SDS011;42923;53.220;6.528;2023-07-13T04:08:15;14.25;;;4.80;;
52964;SDS011;42923;53.220;6.528;2023-07-13T04:10:42;19.23;;;5.22;;
52964;SDS011;42923;53.220;6.528;2023-07-13T04:13:08;17.55;;;5.00;;
52964;SDS011;42923;53.220;6.528;2023-07-13T04:15:34;15.00;;;4.90;;
52964;SDS011;42923;53.220;6.528;2023-07-13T04:17:59;13.38;;;5.25;;
52964;SDS011;42923;53.220;6.528;2023-07-13T04:20:25;17.02;;;5.43;;
52964;SDS011;42923;53.220;6.528;2023-07-13T04:22:52;21.42;;;5.60;;
52964;SDS011;42923;53.220;6.528;2023-07-13T04:25:20;16.60;;;5.32;;
52964;SDS011;42923;53.220;6.528;2023-07-13T04:27:46;14.98;;;4.53;;
52964;SDS011;42923;53.220;6.528;2023-07-13T04:30:12;14.10;;;5.57;;
52964;SDS011;42923;53.220;6.528;2023-07-13T04:32:38;21.33;;;5.78;;
52964;SDS011;42923;53.220;6.528;2023-07-13T04:35:04;19.83;;;5.20;;
52964;SDS011;42923;53.220;6.528;2023-07-13T04:37:30;22.23;;;5.20;;
52964;SDS011;42923;53.220;6.528;2023-07-13T04:39:56;19.63;;;5.70;;
52964;SDS011;42923;53.220;6.528;2023-07-13T04:42:22;22.00;;;5.95;;
52964;SDS011;42923;53.220;6.528;2023-07-13T04:44:51;18.80;;;5.93;;
52964;SDS011;42923;53.220;6.528;2023-07-13T04:47:17;19.00;;;6.32;;
52964;SDS011;42923;53.220;6.528;2023-07-13T04:49:44;15.02;;;5.18;;
52964;SDS011;42923;53.220;6.528;2023-07-13T04:52:10;14.65;;;4.65;;
52964;SDS011;42923;53.220;6.528;2023-07-13T04:54:37;22.58;;;5.47;;
52964;SDS011;42923;53.220;6.528;2023-07-13T04:57:03;10.90;;;5.13;;
52964;SDS011;42923;53.220;6.528;2023-07-13T04:59:31;17.17;;;5.43;;
52964;SDS011;42923;53.220;6.528;2023-07-13T05:01:58;17.02;;;5.25;;
52964;SDS011;42923;53.220;6.528;2023-07-13T05:04:24;18.17;;;5.88;;
52964;SDS011;42923;53.220;6.528;2023-07-13T05:06:50;15.05;;;5.07;;
52964;SDS011;42923;53.220;6.528;2023-07-13T05:09:16;12.27;;;5.25;;
52964;SDS011;42923;53.220;6.528;2023-07-13T05:11:42;18.00;;;5.70;;
52964;SDS011;42923;53.220;6.528;2023-07-13T05:14:08;18.52;;;4.93;;
52964;SDS011;42923;53.220;6.528;2023-07-13T05:16:35;17.55;;;4.63;;
52964;SDS011;42923;53.220;6.528;2023-07-13T05:19:01;15.65;;;5.03;;
52964;SDS011;42923;53.220;6.528;2023-07-13T05:21:28;15.70;;;5.15;;
52964;SDS011;42923;53.220;6.528;2023-07-13T05:23:54;19.92;;;5.50;;
52964;SDS011;42923;53.220;6.528;2023-07-13T05:26:20;14.35;;;4.50;;
52964;SDS011;42923;53.220;6.528;2023-07-13T05:28:46;14.57;;;5.00;;
52964;SDS011;42923;53.220;6.528;2023-07-13T05:31:12;13.70;;;4.75;;
52964;SDS011;42923;53.220;6.528;2023-07-13T05:33:38;13.55;;;4.70;;
52964;SDS011;42923;53.220;6.528;2023-07-13T05:36:04;14.98;;;4.00;;
52964;SDS011;42923;53.220;6.528;2023-07-13T05:38:31;19.23;;;5.40;;
52964;SDS011;42923;53.220;6.528;2023-07-13T05:40:57;13.55;;;4.45;;
52964;SDS011;42923;53.220;6.528;2023-07-13T05:43:23;17.50;;;4.97;;
52964;SDS011;42923;53.220;6.528;2023-07-13T05:45:49;11.77;;;4.68;;
52964;SDS011;42923;53.220;6.528;2023-07-13T05:48:18;14.50;;;4.85;;
52964;SDS011;42923;53.220;6.528;2023-07-13T05:50:44;11.43;;;4.20;;
52964;SDS011;42923;53.220;6.528;2023-07-13T05:53:09;14.63;;;4.63;;
52964;SDS011;42923;53.220;6.528;2023-07-13T05:55:40;13.13;;;3.50;;
52964;SDS011;42923;53.220;6.528;2023-07-13T05:58:07;13.60;;;4.65;;
52964;SDS011;42923;53.220;6.528;2023-07-13T06:00:33;18.70;;;3.60;;
52964;SDS011;42923;53.220;6.528;2023-07-13T06:02:58;13.50;;;4.20;;
52964;SDS011;42923;53.220;6.528;2023-07-13T06:05:24;12.07;;;4.07;;
52964;SDS011;42923;53.220;6.528;2023-07-13T06:07:50;8.82;;;3.92;;
52964;SDS011;42923;53.220;6.528;2023-07-13T06:10:16;14.77;;;4.07;;
52964;SDS011;42923;53.220;6.528;2023-07-13T06:12:42;9.93;;;3.70;;
52964;SDS011;42923;53.220;6.528;2023-07-13T06:15:08;9.32;;;3.28;;
52964;SDS011;42923;53.220;6.528;2023-07-13T06:17:34;14.73;;;4.13;;
52964;SDS011;42923;53.220;6.528;2023-07-13T06:20:00;9.55;;;3.47;;
52964;SDS011;42923;53.220;6.528;2023-07-13T06:22:26;16.60;;;3.15;;
52964;SDS011;42923;53.220;6.528;2023-07-13T06:24:52;13.00;;;3.13;;
52964;SDS011;42923;53.220;6.528;2023-07-13T06:27:17;12.93;;;3.72;;
52964;SDS011;42923;53.220;6.528;2023-07-13T06:29:43;17.65;;;4.20;;
52964;SDS011;42923;53.220;6.528;2023-07-13T06:32:10;12.05;;;3.10;;
52964;SDS011;42923;53.220;6.528;2023-07-13T06:34:36;11.90;;;3.78;;
52964;SDS011;42923;53.220;6.528;2023-07-13T06:37:02;12.88;;;2.90;;
52964;SDS011;42923;53.220;6.528;2023-07-13T06:39:27;18.50;;;3.45;;
52964;SDS011;42923;53.220;6.528;2023-07-13T06:41:53;15.02;;;3.72;;
52964;SDS011;42923;53.220;6.528;2023-07-13T06:44:19;6.45;;;3.40;;
52964;SDS011;42923;53.220;6.528;2023-07-13T06:46:45;7.00;;;2.40;;
52964;SDS011;42923;53.220;6.528;2023-07-13T06:49:11;9.73;;;3.22;;
52964;SDS011;42923;53.220;6.528;2023-07-13T06:51:36;15.73;;;3.63;;
52964;SDS011;42923;53.220;6.528;2023-07-13T06:54:02;8.77;;;2.75;;
52964;SDS011;42923;53.220;6.528;2023-07-13T06:56:28;12.77;;;2.85;;
52964;SDS011;42923;53.220;6.528;2023-07-13T06:58:54;5.80;;;3.05;;
52964;SDS011;42923;53.220;6.528;2023-07-13T07:01:20;11.85;;;3.50;;
52964;SDS011;42923;53.220;6.528;2023-07-13T07:03:46;7.28;;;2.75;;
52964;SDS011;42923;53.220;6.528;2023-07-13T07:06:19;11.68;;;2.58;;
52964;SDS011;42923;53.220;6.528;2023-07-13T07:08:48;5.70;;;2.72;;
52964;SDS011;42923;53.220;6.528;2023-07-13T07:11:19;8.45;;;2.50;;
52964;SDS011;42923;53.220;6.528;2023-07-13T07:13:50;7.35;;;2.95;;
52964;SDS011;42923;53.220;6.528;2023-07-13T07:16:18;8.93;;;2.75;;
52964;SDS011;42923;53.220;6.528;2023-07-13T07:18:44;5.53;;;2.50;;
52964;SDS011;42923;53.220;6.528;2023-07-13T07:21:11;10.75;;;2.47;;
52964;SDS011;42923;53.220;6.528;2023-07-13T07:23:37;8.02;;;2.20;;
52964;SDS011;42923;53.220;6.528;2023-07-13T07:26:03;5.30;;;2.40;;
52964;SDS011;42923;53.220;6.528;2023-07-13T07:28:29;7.35;;;2.33;;
52964;SDS011;42923;53.220;6.528;2023-07-13T07:30:55;6.55;;;2.22;;
52964;SDS011;42923;53.220;6.528;2023-07-13T07:33:23;10.27;;;2.40;;
52964;SDS011;42923;53.220;6.528;2023-07-13T07:35:50;6.57;;;2.35;;
52964;SDS011;42923;53.220;6.528;2023-07-13T07:38:16;7.68;;;2.83;;
52964;SDS011;42923;53.220;6.528;2023-07-13T07:40:42;4.32;;;2.00;;
52964;SDS011;42923;53.220;6.528;2023-07-13T07:43:09;2.92;;;1.77;;
52964;SDS011;42923;53.220;6.528;2023-07-13T07:45:35;4.53;;;2.28;;
52964;SDS011;42923;53.220;6.528;2023-07-13T07:48:03;4.30;;;2.00;;
52964;SDS011;42923;53.220;6.528;2023-07-13T07:50:30;4.57;;;2.03;;
52964;SDS011;42923;53.220;6.528;2023-07-13T07:52:56;4.07;;;1.92;;
52964;SDS011;42923;53.220;6.528;2023-07-13T07:55:22;5.63;;;2.03;;
52964;SDS011;42923;53.220;6.528;2023-07-13T07:57:49;7.75;;;2.78;;
52964;SDS011;42923;53.220;6.528;2023-07-13T08:00:15;7.25;;;2.53;;
52964;SDS011;42923;53.220;6.528;2023-07-13T08:02:43;5.07;;;2.20;;
52964;SDS011;42923;53.220;6.528;2023-07-13T08:05:09;5.47;;;2.55;;
52964;SDS011;42923;53.220;6.528;2023-07-13T08:07:36;6.55;;;2.25;;
52964;SDS011;42923;53.220;6.528;2023-07-13T08:10:04;8.00;;;2.08;;
52964;SDS011;42923;53.220;6.528;2023-07-13T08:12:35;4.85;;;1.67;;
52964;SDS011;42923;53.220;6.528;2023-07-13T08:15:01;5.43;;;1.88;;
52964;SDS011;42923;53.220;6.528;2023-07-13T08:17:27;4.10;;;1.83;;
52964;SDS011;42923;53.220;6.528;2023-07-13T08:19:54;5.28;;;1.92;;
52964;SDS011;42923;53.220;6.528;2023-07-13T08:22:20;6.03;;;2.20;;
52964;SDS011;42923;53.220;6.528;2023-07-13T08:24:46;3.15;;;2.15;;
52964;SDS011;42923;53.220;6.528;2023-07-13T08:27:20;5.22;;;1.70;;
52964;SDS011;42923;53.220;6.528;2023-07-13T08:29:47;9.07;;;2.47;;
52964;SDS011;42923;53.220;6.528;2023-07-13T08:32:13;6.25;;;2.05;;
52964;SDS011;42923;53.220;6.528;2023-07-13T08:34:40;7.93;;;2.70;;
52964;SDS011;42923;53.220;6.528;2023-07-13T08:37:06;7.18;;;2.20;;
52964;SDS011;42923;53.220;6.528;2023-07-13T08:39:32;7.90;;;2.92;;
52964;SDS011;42923;53.220;6.528;2023-07-13T08:42:04;5.45;;;2.58;;
52964;SDS011;42923;53.220;6.528;2023-07-13T08:44:41;6.95;;;2.50;;
52964;SDS011;42923;53.220;6.528;2023-07-13T08:47:21;9.77;;;2.80;;
52964;SDS011;42923;53.220;6.528;2023-07-13T08:49:48;10.40;;;2.75;;
52964;SDS011;42923;53.220;6.528;2023-07-13T08:52:26;7.35;;;2.88;;
52964;SDS011;42923;53.220;6.528;2023-07-13T08:55:05;7.80;;;2.33;;
52964;SDS011;42923;53.220;6.528;2023-07-13T08:57:40;6.80;;;2.30;;
52964;SDS011;42923;53.220;6.528;2023-07-13T09:00:10;7.93;;;2.38;;
52964;SDS011;42923;53.220;6.528;2023-07-13T09:05:22;7.97;;;3.15;;
52964;SDS011;42923;53.220;6.528;2023-07-13T09:14:06;7.00;;;2.60;;
52964;SDS011;42923;53.220;6.528;2023-07-13T09:16:39;6.22;;;2.13;;
52964;SDS011;42923;53.220;6.528;2023-07-13T09:19:06;8.70;;;2.70;;
52964;SDS011;42923;53.220;6.528;2023-07-13T09:21:37;6.95;;;2.50;;
52964;SDS011;42923;53.220;6.528;2023-07-13T09:26:42;9.55;;;2.10;;
52964;SDS011;42923;53.220;6.528;2023-07-13T09:29:27;4.57;;;2.13;;
52964;SDS011;42923;53.220;6.528;2023-07-13T09:31:58;5.80;;;2.05;;
52964;SDS011;42923;53.220;6.528;2023-07-13T09:34:29;5.90;;;2.65;;
52964;SDS011;42923;53.220;6.528;2023-07-13T09:36:56;10.38;;;2.63;;
52964;SDS011;42923;53.220;6.528;2023-07-13T09:39:26;3.70;;;1.98;;
52964;SDS011;42923;53.220;6.528;2023-07-13T09:42:12;3.83;;;1.98;;
52964;SDS011;42923;53.220;6.528;2023-07-13T09:47:20;11.75;;;2.35;;
52964;SDS011;42923;53.220;6.528;2023-07-13T09:49:54;5.57;;;2.60;;
52964;SDS011;42923;53.220;6.528;2023-07-13T09:52:23;4.43;;;1.77;;
52964;SDS011;42923;53.220;6.528;2023-07-13T09:54:51;5.22;;;2.05;;
52964;SDS011;42923;53.220;6.528;2023-07-13T09:57:23;5.20;;;1.73;;
52964;SDS011;42923;53.220;6.528;2023-07-13T09:59:52;5.80;;;1.60;;
52964;SDS011;42923;53.220;6.528;2023-07-13T10:02:32;3.05;;;1.67;;
52964;SDS011;42923;53.220;6.528;2023-07-13T10:05:01;7.15;;;2.10;;
52964;SDS011;42923;53.220;6.528;2023-07-13T10:07:30;6.47;;;1.35;;
52964;SDS011;42923;53.220;6.528;2023-07-13T10:09:58;5.05;;;1.52;;
52964;SDS011;42923;53.220;6.528;2023-07-13T10:12:28;2.83;;;1.63;;
52964;SDS011;42923;53.220;6.528;2023-07-13T10:15:00;5.70;;;1.40;;
52964;SDS011;42923;53.220;6.528;2023-07-13T10:17:30;1.80;;;1.40;;
52964;SDS011;42923;53.220;6.528;2023-07-13T10:20:04;4.45;;;1.15;;
52964;SDS011;42923;53.220;6.528;2023-07-13T10:23:20;4.38;;;1.52;;
52964;SDS011;42923;53.220;6.528;2023-07-13T10:25:33;2.85;;;1.27;;
52964;SDS011;42923;53.220;6.528;2023-07-13T10:28:06;4.28;;;1.48;;
52964;SDS011;42923;53.220;6.528;2023-07-13T10:30:54;2.75;;;1.00;;
52964;SDS011;42923;53.220;6.528;2023-07-13T10:33:23;3.97;;;1.20;;
52964;SDS011;42923;53.220;6.528;2023-07-13T10:35:50;3.88;;;1.20;;
52964;SDS011;42923;53.220;6.528;2023-07-13T10:38:21;1.95;;;1.40;;
52964;SDS011;42923;53.220;6.528;2023-07-13T10:40:55;1.85;;;1.10;;
52964;SDS011;42923;53.220;6.528;2023-07-13T10:43:25;4.10;;;1.55;;
52964;SDS011;42923;53.220;6.528;2023-07-13T10:45:53;2.55;;;1.20;;
52964;SDS011;42923;53.220;6.528;2023-07-13T10:48:20;2.55;;;0.98;;
52964;SDS011;42923;53.220;6.528;2023-07-13T10:50:49;3.80;;;1.30;;
52964;SDS011;42923;53.220;6.528;2023-07-13T10:53:21;1.77;;;0.93;;
52964;SDS011;42923;53.220;6.528;2023-07-13T10:55:59;1.85;;;1.00;;
52964;SDS011;42923;53.220;6.528;2023-07-13T11:01:11;5.10;;;1.30;;
52964;SDS011;42923;53.220;6.528;2023-07-13T11:08:54;3.45;;;1.38;;
52964;SDS011;42923;53.220;6.528;2023-07-13T11:18:51;3.35;;;1.45;;
52964;SDS011;42923;53.220;6.528;2023-07-13T11:21:33;4.47;;;1.73;;
52964;SDS011;42923;53.220;6.528;2023-07-13T11:24:03;10.07;;;1.70;;
52964;SDS011;42923;53.220;6.528;2023-07-13T11:31:57;3.17;;;1.30;;
52964;SDS011;42923;53.220;6.528;2023-07-13T11:34:34;5.25;;;1.85;;
52964;SDS011;42923;53.220;6.528;2023-07-13T11:37:03;3.90;;;1.40;;
52964;SDS011;42923;53.220;6.528;2023-07-13T11:39:36;2.22;;;1.50;;
52964;SDS011;42923;53.220;6.528;2023-07-13T11:42:10;3.25;;;1.50;;
52964;SDS011;42923;53.220;6.528;2023-07-13T11:44:49;2.55;;;1.20;;
52964;SDS011;42923;53.220;6.528;2023-07-13T11:47:17;4.45;;;1.95;;
52964;SDS011;42923;53.220;6.528;2023-07-13T11:49:52;2.28;;;1.20;;
52964;SDS011;42923;53.220;6.528;2023-07-13T11:52:22;8.93;;;1.50;;
52964;SDS011;42923;53.220;6.528;2023-07-13T11:54:56;2.85;;;1.70;;
52964;SDS011;42923;53.220;6.528;2023-07-13T11:57:27;3.97;;;1.30;;
52964;SDS011;42923;53.220;6.528;2023-07-13T11:59:56;6.15;;;1.67;;
52964;SDS011;42923;53.220;6.528;2023-07-13T12:05:01;3.55;;;1.30;;
52964;SDS011;42923;53.220;6.528;2023-07-13T12:07:30;10.70;;;1.83;;
52964;SDS011;42923;53.220;6.528;2023-07-13T12:10:01;10.15;;;1.80;;
52964;SDS011;42923;53.220;6.528;2023-07-13T12:12:51;8.05;;;2.00;;
52964;SDS011;42923;53.220;6.528;2023-07-13T12:15:49;5.45;;;2.17;;
52964;SDS011;42923;53.220;6.528;2023-07-13T12:18:23;4.10;;;1.35;;
52964;SDS011;42923;53.220;6.528;2023-07-13T12:20:55;4.82;;;1.70;;
52964;SDS011;42923;53.220;6.528;2023-07-13T12:23:36;4.38;;;1.65;;
52964;SDS011;42923;53.220;6.528;2023-07-13T12:26:03;5.35;;;2.35;;
52964;SDS011;42923;53.220;6.528;2023-07-13T12:31:04;4.38;;;1.50;;
52964;SDS011;42923;53.220;6.528;2023-07-13T12:33:32;4.95;;;1.60;;
52964;SDS011;42923;53.220;6.528;2023-07-13T12:36:02;3.35;;;1.40;;
52964;SDS011;42923;53.220;6.528;2023-07-13T12:38:31;4.07;;;1.48;;
52964;SDS011;42923;53.220;6.528;2023-07-13T12:40:58;8.77;;;1.67;;
52964;SDS011;42923;53.220;6.528;2023-07-13T12:43:24;2.25;;;1.30;;
52964;SDS011;42923;53.220;6.528;2023-07-13T12:46:00;9.05;;;1.60;;
52964;SDS011;42923;53.220;6.528;2023-07-13T12:48:28;3.28;;;1.20;;
52964;SDS011;42923;53.220;6.528;2023-07-13T12:50:55;2.63;;;1.30;;
52964;SDS011;42923;53.220;6.528;2023-07-13T12:53:30;1.90;;;1.23;;
52964;SDS011;42923;53.220;6.528;2023-07-13T12:56:02;2.42;;;1.30;;
52964;SDS011;42923;53.220;6.528;2023-07-13T12:58:32;5.72;;;1.67;;
52964;SDS011;42923;53.220;6.528;2023-07-13T13:01:04;4.38;;;1.80;;
52964;SDS011;42923;53.220;6.528;2023-07-13T13:03:41;4.35;;;1.48;;
52964;SDS011;42923;53.220;6.528;2023-07-13T13:11:17;3.58;;;1.60;;
52964;SDS011;42923;53.220;6.528;2023-07-13T13:13:44;5.93;;;3.08;;
52964;SDS011;42923;53.220;6.528;2023-07-13T13:16:12;7.78;;;2.00;;
52964;SDS011;42923;53.220;6.528;2023-07-13T13:18:40;5.05;;;1.88;;
52964;SDS011;42923;53.220;6.528;2023-07-13T13:21:05;5.85;;;1.92;;
52964;SDS011;42923;53.220;6.528;2023-07-13T13:23:32;5.57;;;1.75;;
52964;SDS011;42923;53.220;6.528;2023-07-13T13:25:58;4.30;;;1.25;;
52964;SDS011;42923;53.220;6.528;2023-07-13T13:28:24;2.42;;;1.40;;
52964;SDS011;42923;53.220;6.528;2023-07-13T13:30:50;5.60;;;1.88;;
52964;SDS011;42923;53.220;6.528;2023-07-13T13:33:17;6.63;;;2.17;;
52964;SDS011;42923;53.220;6.528;2023-07-13T13:35:45;7.63;;;2.05;;
52964;SDS011;42923;53.220;6.528;2023-07-13T13:40:39;5.82;;;2.17;;
52964;SDS011;42923;53.220;6.528;2023-07-13T13:43:16;3.88;;;1.90;;
52964;SDS011;42923;53.220;6.528;2023-07-13T13:45:52;6.75;;;1.70;;
52964;SDS011;42923;53.220;6.528;2023-07-13T13:48:29;6.25;;;1.95;;
52964;SDS011;42923;53.220;6.528;2023-07-13T13:50:58;3.83;;;1.92;;
52964;SDS011;42923;53.220;6.528;2023-07-13T13:53:25;3.55;;;1.63;;
52964;SDS011;42923;53.220;6.528;2023-07-13T13:55:51;5.10;;;1.73;;
52964;SDS011;42923;53.220;6.528;2023-07-13T13:58:21;4.05;;;1.73;;
52964;SDS011;42923;53.220;6.528;2023-07-13T14:00:47;4.43;;;1.30;;
52964;SDS011;42923;53.220;6.528;2023-07-13T14:03:14;3.30;;;2.05;;
52964;SDS011;42923;53.220;6.528;2023-07-13T14:05:42;3.72;;;1.52;;
52964;SDS011;42923;53.220;6.528;2023-07-13T14:08:15;6.95;;;2.10;;
52964;SDS011;42923;53.220;6.528;2023-07-13T14:10:42;6.25;;;2.13;;
52964;SDS011;42923;53.220;6.528;2023-07-13T14:13:17;4.43;;;1.80;;
52964;SDS011;42923;53.220;6.528;2023-07-13T14:15:46;4.47;;;1.90;;
52964;SDS011;42923;53.220;6.528;2023-07-13T14:18:13;5.80;;;1.60;;
52964;SDS011;42923;53.220;6.528;2023-07-13T14:20:43;7.20;;;1.55;;
52964;SDS011;42923;53.220;6.528;2023-07-13T14:23:14;6.43;;;1.73;;
52964;SDS011;42923;53.220;6.528;2023-07-13T14:25:41;3.08;;;1.50;;
52964;SDS011;42923;53.220;6.528;2023-07-13T14:28:15;3.67;;;1.65;;
52964;SDS011;42923;53.220;6.528;2023-07-13T14:30:50;2.33;;;1.63;;
52964;SDS011;42923;53.220;6.528;2023-07-13T14:33:17;4.95;;;1.58;;
52964;SDS011;42923;53.220;6.528;2023-07-13T14:35:43;5.70;;;1.83;;
52964;SDS011;42923;53.220;6.528;2023-07-13T14:38:13;3.83;;;1.67;;
52964;SDS011;42923;53.220;6.528;2023-07-13T14:40:42;6.53;;;1.75;;
52964;SDS011;42923;53.220;6.528;2023-07-13T14:43:13;5.78;;;1.75;;
52964;SDS011;42923;53.220;6.528;2023-07-13T14:45:41;5.47;;;2.30;;
52964;SDS011;42923;53.220;6.528;2023-07-13T14:48:19;4.93;;;1.67;;
52964;SDS011;42923;53.220;6.528;2023-07-13T14:50:49;4.57;;;2.15;;
52964;SDS011;42923;53.220;6.528;2023-07-13T14:53:20;3.60;;;1.48;;
52964;SDS011;42923;53.220;6.528;2023-07-13T14:55:45;7.70;;;2.15;;
52964;SDS011;42923;53.220;6.528;2023-07-13T14:58:11;5.40;;;1.95;;
52964;SDS011;42923;53.220;6.528;2023-07-13T15:00:38;6.18;;;2.08;;
52964;SDS011;42923;53.220;6.528;2023-07-13T15:03:05;5.70;;;2.58;;
52964;SDS011;42923;53.220;6.528;2023-07-13T15:05:46;4.82;;;1.95;;
52964;SDS011;42923;53.220;6.528;2023-07-13T15:08:13;5.32;;;2.00;;
52964;SDS011;42923;53.220;6.528;2023-07-13T15:10:40;7.13;;;2.05;;
52964;SDS011;42923;53.220;6.528;2023-07-13T15:13:13;8.73;;;1.90;;
52964;SDS011;42923;53.220;6.528;2023-07-13T15:15:49;6.40;;;2.15;;
52964;SDS011;42923;53.220;6.528;2023-07-13T15:18:17;5.28;;;2.35;;
52964;SDS011;42923;53.220;6.528;2023-07-13T15:20:47;8.30;;;2.10;;
52964;SDS011;42923;53.220;6.528;2023-07-13T15:23:14;5.43;;;2.17;;
52964;SDS011;42923;53.220;6.528;2023-07-13T15:25:42;6.50;;;2.28;;
52964;SDS011;42923;53.220;6.528;2023-07-13T15:28:11;4.47;;;1.90;;
52964;SDS011;42923;53.220;6.528;2023-07-13T15:30:44;7.75;;;2.00;;
52964;SDS011;42923;53.220;6.528;2023-07-13T15:33:14;4.95;;;2.20;;
52964;SDS011;42923;53.220;6.528;2023-07-13T15:35:45;4.32;;;1.98;;
52964;SDS011;42923;53.220;6.528;2023-07-13T15:38:14;7.95;;;3.15;;
52964;SDS011;42923;53.220;6.528;2023-07-13T15:40:49;6.38;;;2.28;;
52964;SDS011;42923;53.220;6.528;2023-07-13T15:43:16;4.63;;;1.95;;